KLRF/LRF METAR and TAF weather

Enter ICAO airport designator
Station Type Date Time Source
KLRF METAR 2021/03/07 23:56 UTC NOAA

KLRF 072356Z AUTO 14004KT 10SM CLR 15/01 A3039 RMK AO2 SLP295 T01510005 10176 20151 55004


Station Type Date Time Source
KLRF Decoded METAR 2021/03/07 23:56 UTC NOAA

Little Rock Air Force Base, AR, United States (KLRF) 34-55N 092-09W
Mar 07, 2021 - 06:56 PM EST / 2021.03.07 2356 UTC
Wind: from the SE (140 degrees) at 5 MPH (4 KT):0
Visibility: 10 mile(s):0
Sky conditions: clear
Temperature: 59.2 F (15.1 C)
Dew Point: 32.9 F (0.5 C)
Relative Humidity: 36%
Pressure (altimeter): 30.39 in. Hg (1029 hPa)
Pressure tendency: 0.01 inches (0.4 hPa) lower than three hours ago
ob: KLRF 072356Z AUTO 14004KT 10SM CLR 15/01 A3039 RMK AO2 SLP295 T01510005 10176 20151 55004
cycle: 0

Station Type Date Time Source
KLRF TAF 2021/03/07 23:03 UTC NOAA

TAF KLRF 072300Z 0723/0905 15009KT 9999 SKC QNH3038INS
BECMG 0814/0815 17010G15KT 9999 SKC QNH3043INS
BECMG 0821/0822 18012KT 9999 SKC QNH3041INS TX18/0820Z TN04/0811Z

Example: see airport list